sensor_id;sensor_type;location;lat;lon;timestamp;P1;durP1;ratioP1;P2;durP2;ratioP2
18695;SDS011;22617;43.690;27.956;2022-08-18T00:02:43;15.07;;;11.25;;
18695;SDS011;22617;43.690;27.956;2022-08-18T00:08:01;15.23;;;10.30;;
18695;SDS011;22617;43.690;27.956;2022-08-18T00:13:06;14.20;;;10.50;;
18695;SDS011;22617;43.690;27.956;2022-08-18T00:18:11;13.57;;;10.93;;
18695;SDS011;22617;43.690;27.956;2022-08-18T00:23:15;17.10;;;11.73;;
18695;SDS011;22617;43.690;27.956;2022-08-18T00:28:19;11.45;;;9.93;;
18695;SDS011;22617;43.690;27.956;2022-08-18T00:33:26;17.38;;;13.10;;
18695;SDS011;22617;43.690;27.956;2022-08-18T00:38:29;14.30;;;11.50;;
18695;SDS011;22617;43.690;27.956;2022-08-18T00:43:34;15.45;;;11.30;;
18695;SDS011;22617;43.690;27.956;2022-08-18T00:48:43;16.05;;;11.60;;
18695;SDS011;22617;43.690;27.956;2022-08-18T00:53:52;17.10;;;11.98;;
18695;SDS011;22617;43.690;27.956;2022-08-18T00:59:00;16.58;;;13.57;;
18695;SDS011;22617;43.690;27.956;2022-08-18T01:04:10;13.75;;;11.50;;
18695;SDS011;22617;43.690;27.956;2022-08-18T01:09:18;14.15;;;11.27;;
18695;SDS011;22617;43.690;27.956;2022-08-18T01:14:22;12.82;;;10.85;;
18695;SDS011;22617;43.690;27.956;2022-08-18T01:19:28;13.48;;;11.07;;
18695;SDS011;22617;43.690;27.956;2022-08-18T01:24:51;13.88;;;11.35;;
18695;SDS011;22617;43.690;27.956;2022-08-18T01:30:16;14.98;;;12.52;;
18695;SDS011;22617;43.690;27.956;2022-08-18T01:35:26;13.13;;;10.68;;
18695;SDS011;22617;43.690;27.956;2022-08-18T01:40:42;13.65;;;11.73;;
18695;SDS011;22617;43.690;27.956;2022-08-18T01:46:05;17.95;;;13.73;;
18695;SDS011;22617;43.690;27.956;2022-08-18T01:51:09;15.30;;;11.43;;
18695;SDS011;22617;43.690;27.956;2022-08-18T01:56:15;14.40;;;11.15;;
18695;SDS011;22617;43.690;27.956;2022-08-18T02:01:19;17.50;;;12.52;;
18695;SDS011;22617;43.690;27.956;2022-08-18T02:06:37;14.73;;;11.90;;
18695;SDS011;22617;43.690;27.956;2022-08-18T02:11:49;16.13;;;11.23;;
18695;SDS011;22617;43.690;27.956;2022-08-18T02:16:56;15.80;;;11.98;;
18695;SDS011;22617;43.690;27.956;2022-08-18T02:22:03;14.35;;;11.32;;
18695;SDS011;22617;43.690;27.956;2022-08-18T02:27:10;15.27;;;11.85;;
18695;SDS011;22617;43.690;27.956;2022-08-18T02:32:15;14.45;;;10.38;;
18695;SDS011;22617;43.690;27.956;2022-08-18T02:37:18;13.75;;;10.00;;
18695;SDS011;22617;43.690;27.956;2022-08-18T02:42:25;15.07;;;10.77;;
18695;SDS011;22617;43.690;27.956;2022-08-18T02:47:31;14.38;;;10.90;;
18695;SDS011;22617;43.690;27.956;2022-08-18T02:52:35;14.45;;;11.18;;
18695;SDS011;22617;43.690;27.956;2022-08-18T02:57:42;16.17;;;10.85;;
18695;SDS011;22617;43.690;27.956;2022-08-18T03:02:48;15.55;;;11.40;;
18695;SDS011;22617;43.690;27.956;2022-08-18T03:07:54;14.07;;;11.45;;
18695;SDS011;22617;43.690;27.956;2022-08-18T03:12:59;12.75;;;10.45;;
18695;SDS011;22617;43.690;27.956;2022-08-18T03:18:03;13.45;;;11.00;;
18695;SDS011;22617;43.690;27.956;2022-08-18T03:23:06;15.45;;;12.05;;
18695;SDS011;22617;43.690;27.956;2022-08-18T03:28:12;14.43;;;11.23;;
18695;SDS011;22617;43.690;27.956;2022-08-18T03:33:16;13.73;;;11.52;;
18695;SDS011;22617;43.690;27.956;2022-08-18T03:38:20;15.27;;;11.55;;
18695;SDS011;22617;43.690;27.956;2022-08-18T03:43:25;15.95;;;11.98;;
18695;SDS011;22617;43.690;27.956;2022-08-18T03:48:49;17.92;;;12.23;;
18695;SDS011;22617;43.690;27.956;2022-08-18T03:53:55;19.88;;;12.13;;
18695;SDS011;22617;43.690;27.956;2022-08-18T03:59:03;16.70;;;12.93;;
18695;SDS011;22617;43.690;27.956;2022-08-18T04:04:10;12.38;;;10.20;;
18695;SDS011;22617;43.690;27.956;2022-08-18T04:09:16;13.13;;;10.43;;
18695;SDS011;22617;43.690;27.956;2022-08-18T04:14:22;14.35;;;10.90;;
18695;SDS011;22617;43.690;27.956;2022-08-18T04:19:29;12.30;;;10.32;;
18695;SDS011;22617;43.690;27.956;2022-08-18T04:24:35;18.02;;;12.35;;
18695;SDS011;22617;43.690;27.956;2022-08-18T04:29:43;14.23;;;12.02;;
18695;SDS011;22617;43.690;27.956;2022-08-18T04:34:47;18.02;;;12.30;;
18695;SDS011;22617;43.690;27.956;2022-08-18T04:39:50;14.57;;;11.85;;
18695;SDS011;22617;43.690;27.956;2022-08-18T04:50:37;15.40;;;12.15;;
18695;SDS011;22617;43.690;27.956;2022-08-18T04:55:45;16.38;;;12.02;;
18695;SDS011;22617;43.690;27.956;2022-08-18T05:00:55;14.85;;;11.77;;
18695;SDS011;22617;43.690;27.956;2022-08-18T05:06:02;16.38;;;12.00;;
18695;SDS011;22617;43.690;27.956;2022-08-18T05:11:08;17.30;;;12.25;;
18695;SDS011;22617;43.690;27.956;2022-08-18T05:16:12;14.23;;;11.23;;
18695;SDS011;22617;43.690;27.956;2022-08-18T05:21:29;14.32;;;10.23;;
18695;SDS011;22617;43.690;27.956;2022-08-18T05:26:37;16.40;;;10.65;;
18695;SDS011;22617;43.690;27.956;2022-08-18T05:31:42;14.00;;;11.48;;
18695;SDS011;22617;43.690;27.956;2022-08-18T05:36:53;16.25;;;10.50;;
18695;SDS011;22617;43.690;27.956;2022-08-18T05:42:06;14.63;;;10.75;;
18695;SDS011;22617;43.690;27.956;2022-08-18T05:47:16;14.75;;;9.95;;
18695;SDS011;22617;43.690;27.956;2022-08-18T05:52:27;18.00;;;9.73;;
18695;SDS011;22617;43.690;27.956;2022-08-18T05:57:37;13.55;;;9.30;;
18695;SDS011;22617;43.690;27.956;2022-08-18T06:02:45;12.50;;;9.23;;
18695;SDS011;22617;43.690;27.956;2022-08-18T06:07:56;12.13;;;8.10;;
18695;SDS011;22617;43.690;27.956;2022-08-18T06:13:02;13.60;;;7.93;;
18695;SDS011;22617;43.690;27.956;2022-08-18T06:18:22;10.52;;;8.05;;
18695;SDS011;22617;43.690;27.956;2022-08-18T06:23:38;12.82;;;8.18;;
18695;SDS011;22617;43.690;27.956;2022-08-18T06:28:57;11.98;;;7.32;;
18695;SDS011;22617;43.690;27.956;2022-08-18T06:34:15;11.52;;;7.70;;
18695;SDS011;22617;43.690;27.956;2022-08-18T06:39:30;10.88;;;7.60;;
18695;SDS011;22617;43.690;27.956;2022-08-18T06:44:40;10.70;;;6.45;;
18695;SDS011;22617;43.690;27.956;2022-08-18T06:49:51;10.38;;;7.55;;
18695;SDS011;22617;43.690;27.956;2022-08-18T06:55:06;8.98;;;6.88;;
18695;SDS011;22617;43.690;27.956;2022-08-18T07:00:19;10.85;;;7.20;;
18695;SDS011;22617;43.690;27.956;2022-08-18T07:05:25;11.80;;;6.75;;
18695;SDS011;22617;43.690;27.956;2022-08-18T07:10:33;10.02;;;7.18;;
18695;SDS011;22617;43.690;27.956;2022-08-18T07:15:38;7.85;;;6.25;;
18695;SDS011;22617;43.690;27.956;2022-08-18T07:20:46;9.00;;;6.32;;
18695;SDS011;22617;43.690;27.956;2022-08-18T07:26:00;10.30;;;6.53;;
18695;SDS011;22617;43.690;27.956;2022-08-18T07:31:12;12.68;;;6.82;;
18695;SDS011;22617;43.690;27.956;2022-08-18T07:36:22;10.15;;;6.40;;
18695;SDS011;22617;43.690;27.956;2022-08-18T07:41:32;10.48;;;7.20;;
18695;SDS011;22617;43.690;27.956;2022-08-18T07:46:42;7.90;;;6.47;;
18695;SDS011;22617;43.690;27.956;2022-08-18T07:51:56;8.85;;;6.65;;
18695;SDS011;22617;43.690;27.956;2022-08-18T07:57:09;10.88;;;7.22;;
18695;SDS011;22617;43.690;27.956;2022-08-18T08:02:27;8.75;;;6.25;;
18695;SDS011;22617;43.690;27.956;2022-08-18T08:07:44;10.52;;;7.85;;
18695;SDS011;22617;43.690;27.956;2022-08-18T08:12:56;12.02;;;7.65;;
18695;SDS011;22617;43.690;27.956;2022-08-18T08:18:11;10.05;;;7.38;;
18695;SDS011;22617;43.690;27.956;2022-08-18T08:23:23;9.18;;;6.70;;
18695;SDS011;22617;43.690;27.956;2022-08-18T08:28:35;10.90;;;6.97;;
18695;SDS011;22617;43.690;27.956;2022-08-18T08:33:46;7.40;;;6.60;;
18695;SDS011;22617;43.690;27.956;2022-08-18T08:38:54;9.02;;;6.53;;
18695;SDS011;22617;43.690;27.956;2022-08-18T08:44:05;7.63;;;6.82;;
18695;SDS011;22617;43.690;27.956;2022-08-18T08:49:15;8.75;;;6.10;;
18695;SDS011;22617;43.690;27.956;2022-08-18T08:54:28;8.10;;;6.40;;
18695;SDS011;22617;43.690;27.956;2022-08-18T08:59:40;11.18;;;7.22;;
18695;SDS011;22617;43.690;27.956;2022-08-18T09:04:48;9.35;;;6.78;;
18695;SDS011;22617;43.690;27.956;2022-08-18T09:16:00;7.80;;;7.00;;
18695;SDS011;22617;43.690;27.956;2022-08-18T09:21:20;8.00;;;6.18;;
18695;SDS011;22617;43.690;27.956;2022-08-18T09:26:42;10.82;;;6.95;;
18695;SDS011;22617;43.690;27.956;2022-08-18T09:37:29;7.35;;;6.57;;
18695;SDS011;22617;43.690;27.956;2022-08-18T09:42:47;7.32;;;6.57;;
18695;SDS011;22617;43.690;27.956;2022-08-18T09:48:01;7.75;;;6.50;;
18695;SDS011;22617;43.690;27.956;2022-08-18T09:53:34;7.38;;;6.60;;
18695;SDS011;22617;43.690;27.956;2022-08-18T09:58:57;9.77;;;7.25;;
18695;SDS011;22617;43.690;27.956;2022-08-18T10:09:40;8.25;;;6.70;;
18695;SDS011;22617;43.690;27.956;2022-08-18T10:15:15;9.20;;;6.95;;
18695;SDS011;22617;43.690;27.956;2022-08-18T10:20:37;7.32;;;6.18;;
18695;SDS011;22617;43.690;27.956;2022-08-18T10:25:50;9.48;;;7.07;;
18695;SDS011;22617;43.690;27.956;2022-08-18T10:36:11;12.30;;;7.90;;
18695;SDS011;22617;43.690;27.956;2022-08-18T10:41:54;12.07;;;7.13;;
18695;SDS011;22617;43.690;27.956;2022-08-18T10:47:02;7.63;;;6.82;;
18695;SDS011;22617;43.690;27.956;2022-08-18T10:58:05;10.90;;;6.53;;
18695;SDS011;22617;43.690;27.956;2022-08-18T11:03:28;8.35;;;6.18;;
18695;SDS011;22617;43.690;27.956;2022-08-18T11:08:57;14.60;;;6.75;;
18695;SDS011;22617;43.690;27.956;2022-08-18T11:14:07;9.45;;;6.20;;
18695;SDS011;22617;43.690;27.956;2022-08-18T11:19:35;7.82;;;6.45;;
18695;SDS011;22617;43.690;27.956;2022-08-18T11:25:01;8.23;;;6.80;;
18695;SDS011;22617;43.690;27.956;2022-08-18T11:30:13;11.63;;;7.07;;
18695;SDS011;22617;43.690;27.956;2022-08-18T11:35:19;11.25;;;6.43;;
18695;SDS011;22617;43.690;27.956;2022-08-18T11:40:25;10.23;;;6.70;;
18695;SDS011;22617;43.690;27.956;2022-08-18T11:46:00;8.07;;;7.00;;
18695;SDS011;22617;43.690;27.956;2022-08-18T11:51:18;8.77;;;6.30;;
18695;SDS011;22617;43.690;27.956;2022-08-18T11:56:25;8.00;;;6.97;;
18695;SDS011;22617;43.690;27.956;2022-08-18T12:01:34;8.65;;;6.35;;
18695;SDS011;22617;43.690;27.956;2022-08-18T12:12:13;9.77;;;6.88;;
18695;SDS011;22617;43.690;27.956;2022-08-18T12:17:23;12.20;;;7.07;;
18695;SDS011;22617;43.690;27.956;2022-08-18T12:22:30;11.13;;;6.93;;
18695;SDS011;22617;43.690;27.956;2022-08-18T12:27:34;9.35;;;6.78;;
18695;SDS011;22617;43.690;27.956;2022-08-18T12:32:39;9.57;;;7.38;;
18695;SDS011;22617;43.690;27.956;2022-08-18T12:38:01;9.20;;;6.95;;
18695;SDS011;22617;43.690;27.956;2022-08-18T12:43:15;9.07;;;7.10;;
18695;SDS011;22617;43.690;27.956;2022-08-18T12:48:22;10.35;;;7.13;;
18695;SDS011;22617;43.690;27.956;2022-08-18T12:53:26;8.38;;;7.32;;
18695;SDS011;22617;43.690;27.956;2022-08-18T12:58:51;9.93;;;7.10;;
18695;SDS011;22617;43.690;27.956;2022-08-18T13:03:57;11.45;;;7.30;;
18695;SDS011;22617;43.690;27.956;2022-08-18T13:09:22;9.70;;;7.00;;
18695;SDS011;22617;43.690;27.956;2022-08-18T13:14:47;8.50;;;6.63;;
18695;SDS011;22617;43.690;27.956;2022-08-18T13:19:53;9.57;;;6.25;;
18695;SDS011;22617;43.690;27.956;2022-08-18T13:24:58;8.50;;;6.85;;
18695;SDS011;22617;43.690;27.956;2022-08-18T13:30:05;9.25;;;7.05;;
18695;SDS011;22617;43.690;27.956;2022-08-18T13:35:33;9.27;;;6.65;;
18695;SDS011;22617;43.690;27.956;2022-08-18T13:40:45;7.53;;;6.50;;
18695;SDS011;22617;43.690;27.956;2022-08-18T13:45:50;7.80;;;6.50;;
18695;SDS011;22617;43.690;27.956;2022-08-18T13:50:58;10.60;;;7.05;;
18695;SDS011;22617;43.690;27.956;2022-08-18T13:56:03;10.25;;;6.50;;
18695;SDS011;22617;43.690;27.956;2022-08-18T14:01:11;8.48;;;7.25;;
18695;SDS011;22617;43.690;27.956;2022-08-18T14:06:37;10.13;;;7.30;;
18695;SDS011;22617;43.690;27.956;2022-08-18T14:11:51;11.90;;;6.95;;
18695;SDS011;22617;43.690;27.956;2022-08-18T14:16:55;7.78;;;6.82;;
18695;SDS011;22617;43.690;27.956;2022-08-18T14:22:01;10.02;;;6.82;;
18695;SDS011;22617;43.690;27.956;2022-08-18T14:27:26;12.20;;;7.72;;
18695;SDS011;22617;43.690;27.956;2022-08-18T14:32:36;8.60;;;7.05;;
18695;SDS011;22617;43.690;27.956;2022-08-18T14:37:51;10.68;;;7.45;;
18695;SDS011;22617;43.690;27.956;2022-08-18T14:42:57;10.00;;;7.03;;
18695;SDS011;22617;43.690;27.956;2022-08-18T14:48:02;10.65;;;7.03;;
18695;SDS011;22617;43.690;27.956;2022-08-18T14:53:13;9.40;;;6.88;;
18695;SDS011;22617;43.690;27.956;2022-08-18T14:58:17;7.10;;;6.40;;
18695;SDS011;22617;43.690;27.956;2022-08-18T15:03:21;9.32;;;6.57;;
18695;SDS011;22617;43.690;27.956;2022-08-18T15:08:33;8.88;;;6.40;;
18695;SDS011;22617;43.690;27.956;2022-08-18T15:13:39;8.70;;;6.32;;
18695;SDS011;22617;43.690;27.956;2022-08-18T15:18:46;8.10;;;6.93;;
18695;SDS011;22617;43.690;27.956;2022-08-18T15:23:51;10.55;;;7.40;;
18695;SDS011;22617;43.690;27.956;2022-08-18T15:29:21;8.30;;;6.78;;
18695;SDS011;22617;43.690;27.956;2022-08-18T15:34:30;8.55;;;6.70;;
18695;SDS011;22617;43.690;27.956;2022-08-18T15:39:48;11.05;;;7.65;;
18695;SDS011;22617;43.690;27.956;2022-08-18T15:45:01;12.23;;;7.40;;
18695;SDS011;22617;43.690;27.956;2022-08-18T15:50:14;9.10;;;6.78;;
18695;SDS011;22617;43.690;27.956;2022-08-18T15:55:28;9.77;;;6.82;;
18695;SDS011;22617;43.690;27.956;2022-08-18T16:00:37;11.27;;;7.35;;
18695;SDS011;22617;43.690;27.956;2022-08-18T16:05:46;8.57;;;7.55;;
18695;SDS011;22617;43.690;27.956;2022-08-18T16:10:55;9.95;;;7.32;;
18695;SDS011;22617;43.690;27.956;2022-08-18T16:15:59;9.68;;;7.35;;
18695;SDS011;22617;43.690;27.956;2022-08-18T16:21:03;12.18;;;7.70;;
18695;SDS011;22617;43.690;27.956;2022-08-18T16:26:13;11.80;;;7.22;;
18695;SDS011;22617;43.690;27.956;2022-08-18T16:31:19;9.75;;;7.50;;
18695;SDS011;22617;43.690;27.956;2022-08-18T16:36:29;11.65;;;7.10;;
18695;SDS011;22617;43.690;27.956;2022-08-18T16:41:35;11.93;;;7.80;;
18695;SDS011;22617;43.690;27.956;2022-08-18T16:46:39;8.68;;;6.72;;
18695;SDS011;22617;43.690;27.956;2022-08-18T16:51:43;14.55;;;7.82;;
18695;SDS011;22617;43.690;27.956;2022-08-18T16:56:49;12.25;;;8.30;;
18695;SDS011;22617;43.690;27.956;2022-08-18T17:01:52;15.32;;;9.57;;
18695;SDS011;22617;43.690;27.956;2022-08-18T17:07:13;16.70;;;10.05;;
18695;SDS011;22617;43.690;27.956;2022-08-18T17:12:18;13.45;;;10.02;;
18695;SDS011;22617;43.690;27.956;2022-08-18T17:17:22;13.00;;;9.73;;
18695;SDS011;22617;43.690;27.956;2022-08-18T17:22:26;15.10;;;10.52;;
18695;SDS011;22617;43.690;27.956;2022-08-18T17:27:31;15.52;;;10.68;;
18695;SDS011;22617;43.690;27.956;2022-08-18T17:32:39;16.05;;;10.05;;
18695;SDS011;22617;43.690;27.956;2022-08-18T17:37:50;17.08;;;10.18;;
18695;SDS011;22617;43.690;27.956;2022-08-18T17:43:01;15.90;;;10.40;;
18695;SDS011;22617;43.690;27.956;2022-08-18T17:48:06;15.77;;;10.68;;
18695;SDS011;22617;43.690;27.956;2022-08-18T17:53:13;13.30;;;9.50;;
18695;SDS011;22617;43.690;27.956;2022-08-18T17:58:20;12.88;;;9.95;;
18695;SDS011;22617;43.690;27.956;2022-08-18T18:03:27;14.70;;;9.20;;
18695;SDS011;22617;43.690;27.956;2022-08-18T18:08:50;14.13;;;10.07;;
18695;SDS011;22617;43.690;27.956;2022-08-18T18:14:00;15.02;;;9.93;;
18695;SDS011;22617;43.690;27.956;2022-08-18T18:19:24;13.57;;;9.35;;
18695;SDS011;22617;43.690;27.956;2022-08-18T18:24:30;13.02;;;10.05;;
18695;SDS011;22617;43.690;27.956;2022-08-18T18:29:37;12.07;;;9.75;;
18695;SDS011;22617;43.690;27.956;2022-08-18T18:34:42;14.35;;;9.95;;
18695;SDS011;22617;43.690;27.956;2022-08-18T18:39:52;12.25;;;9.57;;
18695;SDS011;22617;43.690;27.956;2022-08-18T18:45:00;12.95;;;10.23;;
18695;SDS011;22617;43.690;27.956;2022-08-18T18:50:11;11.60;;;9.65;;
18695;SDS011;22617;43.690;27.956;2022-08-18T18:55:21;12.88;;;9.48;;
18695;SDS011;22617;43.690;27.956;2022-08-18T19:00:28;12.00;;;9.32;;
18695;SDS011;22617;43.690;27.956;2022-08-18T19:05:42;16.52;;;10.05;;
18695;SDS011;22617;43.690;27.956;2022-08-18T19:10:52;13.32;;;9.60;;
18695;SDS011;22617;43.690;27.956;2022-08-18T19:16:08;12.30;;;9.30;;
18695;SDS011;22617;43.690;27.956;2022-08-18T19:21:25;13.77;;;9.60;;
18695;SDS011;22617;43.690;27.956;2022-08-18T19:26:56;12.60;;;9.27;;
18695;SDS011;22617;43.690;27.956;2022-08-18T19:32:05;13.85;;;9.60;;
18695;SDS011;22617;43.690;27.956;2022-08-18T19:37:18;14.07;;;9.73;;
18695;SDS011;22617;43.690;27.956;2022-08-18T19:42:33;13.77;;;9.90;;
18695;SDS011;22617;43.690;27.956;2022-08-18T19:47:46;12.18;;;9.52;;
18695;SDS011;22617;43.690;27.956;2022-08-18T19:52:58;12.25;;;9.40;;
18695;SDS011;22617;43.690;27.956;2022-08-18T19:58:22;11.10;;;8.70;;
18695;SDS011;22617;43.690;27.956;2022-08-18T20:09:08;13.75;;;9.15;;
18695;SDS011;22617;43.690;27.956;2022-08-18T20:14:25;13.95;;;9.80;;
18695;SDS011;22617;43.690;27.956;2022-08-18T20:19:42;11.57;;;9.43;;
18695;SDS011;22617;43.690;27.956;2022-08-18T20:24:49;13.63;;;10.00;;
18695;SDS011;22617;43.690;27.956;2022-08-18T20:30:03;12.18;;;9.43;;
18695;SDS011;22617;43.690;27.956;2022-08-18T20:35:28;14.52;;;9.35;;
18695;SDS011;22617;43.690;27.956;2022-08-18T20:40:37;13.15;;;10.02;;
18695;SDS011;22617;43.690;27.956;2022-08-18T20:45:45;12.00;;;9.70;;
18695;SDS011;22617;43.690;27.956;2022-08-18T20:50:55;11.55;;;8.85;;
18695;SDS011;22617;43.690;27.956;2022-08-18T20:56:11;12.93;;;8.98;;
18695;SDS011;22617;43.690;27.956;2022-08-18T21:01:33;12.73;;;9.15;;
18695;SDS011;22617;43.690;27.956;2022-08-18T21:06:40;12.73;;;9.82;;
18695;SDS011;22617;43.690;27.956;2022-08-18T21:11:46;17.98;;;10.70;;
18695;SDS011;22617;43.690;27.956;2022-08-18T21:16:50;12.90;;;9.40;;
18695;SDS011;22617;43.690;27.956;2022-08-18T21:21:56;12.20;;;9.07;;
18695;SDS011;22617;43.690;27.956;2022-08-18T21:27:02;12.18;;;9.10;;
18695;SDS011;22617;43.690;27.956;2022-08-18T21:32:08;14.00;;;9.52;;
18695;SDS011;22617;43.690;27.956;2022-08-18T21:37:16;12.63;;;9.73;;
18695;SDS011;22617;43.690;27.956;2022-08-18T21:42:23;12.02;;;9.35;;
18695;SDS011;22617;43.690;27.956;2022-08-18T21:47:29;15.10;;;9.55;;
18695;SDS011;22617;43.690;27.956;2022-08-18T21:52:37;11.18;;;9.07;;
18695;SDS011;22617;43.690;27.956;2022-08-18T21:57:59;21.35;;;10.27;;
18695;SDS011;22617;43.690;27.956;2022-08-18T22:03:10;18.02;;;10.35;;
18695;SDS011;22617;43.690;27.956;2022-08-18T22:08:23;20.13;;;10.80;;
18695;SDS011;22617;43.690;27.956;2022-08-18T22:13:28;18.38;;;10.95;;
18695;SDS011;22617;43.690;27.956;2022-08-18T22:18:49;16.92;;;9.45;;
18695;SDS011;22617;43.690;27.956;2022-08-18T22:23:54;10.73;;;9.13;;
18695;SDS011;22617;43.690;27.956;2022-08-18T22:29:20;14.70;;;9.70;;
18695;SDS011;22617;43.690;27.956;2022-08-18T22:34:28;16.08;;;9.80;;
18695;SDS011;22617;43.690;27.956;2022-08-18T22:39:37;13.57;;;9.20;;
18695;SDS011;22617;43.690;27.956;2022-08-18T22:44:43;10.32;;;8.10;;
18695;SDS011;22617;43.690;27.956;2022-08-18T22:49:47;13.65;;;9.10;;
18695;SDS011;22617;43.690;27.956;2022-08-18T22:54:52;12.40;;;8.65;;
18695;SDS011;22617;43.690;27.956;2022-08-18T22:59:56;13.48;;;8.13;;
18695;SDS011;22617;43.690;27.956;2022-08-18T23:05:01;13.95;;;8.60;;
18695;SDS011;22617;43.690;27.956;2022-08-18T23:10:07;15.10;;;8.85;;
18695;SDS011;22617;43.690;27.956;2022-08-18T23:15:15;12.80;;;8.82;;
18695;SDS011;22617;43.690;27.956;2022-08-18T23:20:19;11.43;;;8.27;;
18695;SDS011;22617;43.690;27.956;2022-08-18T23:25:28;9.73;;;8.02;;
18695;SDS011;22617;43.690;27.956;2022-08-18T23:30:33;10.68;;;7.55;;
18695;SDS011;22617;43.690;27.956;2022-08-18T23:35:37;10.48;;;7.88;;
18695;SDS011;22617;43.690;27.956;2022-08-18T23:40:44;9.75;;;7.72;;
18695;SDS011;22617;43.690;27.956;2022-08-18T23:45:49;15.32;;;9.82;;
18695;SDS011;22617;43.690;27.956;2022-08-18T23:50:53;12.80;;;9.27;;
18695;SDS011;22617;43.690;27.956;2022-08-18T23:56:03;13.15;;;9.52;;
